This is the latest recevied weather packets stored in our database for station/object KL1SF-7. If no packets are shown the sender has not sent any weather packets the latest 10 day(s).
| Time | Temp. | Humidity | Pressure | Rain* | Wind** | Luminosity | Snow |
|---|---|---|---|---|---|---|---|
| 1777710200 | 8.33° C | 27% | 1020.1 hPa | 0 mm | - | - | - |
| 1777709616 | 8.33° C | 27% | 1020.1 hPa | 0 mm | - | - | - |
| 1777709030 | 7.78° C | 28% | 1020.6 hPa | 0 mm | - | - | - |
| 1777708410 | 7.22° C | 28% | 1020.6 hPa | 0 mm | - | - | - |
| 1777707820 | 7.22° C | 28% | 1020.6 hPa | 0 mm | - | - | - |
| 1777707212 | 7.22° C | 30% | 1020.5 hPa | 0 mm | - | - | - |
| 1777706613 | 7.22° C | 30% | 1020.4 hPa | 0 mm | - | - | - |
| 1777706007 | 7.78° C | 28% | 1020.4 hPa | 0 mm | - | - | - |
| 1777705418 | 8.33° C | 27% | 1020.4 hPa | 0 mm | - | - | - |
| 1777704820 | 8.89° C | 28% | 1019.9 hPa | 0 mm | - | - | - |
| 1777704209 | 9.44° C | 27% | 1019.9 hPa | 0 mm | - | - | - |
| 1777703622 | 9.44° C | 26% | 1019.8 hPa | 0 mm | - | - | - |
| 1777703023 | 10° C | 25% | 1019.8 hPa | 0 mm | - | - | - |
| 1777702412 | 10° C | 25% | 1019.8 hPa | 0 mm | - | - | - |
| 1777701829 | 10° C | 26% | 1020.5 hPa | 0 mm | - | - | - |
| 1777701211 | 9.44° C | 26% | 1019.7 hPa | 0 mm | - | - | - |
| 1777700621 | 9.44° C | 26% | 1019.7 hPa | 0 mm | - | - | - |
| 1777700013 | 8.89° C | 26% | 1020.1 hPa | 0 mm | - | - | - |
| 1777699415 | 7.78° C | 28% | 1020.3 hPa | 0 mm | - | - | - |
| 1777698804 | 6.11° C | 31% | 1020.3 hPa | 0 mm | - | - | - |
| 1777698221 | 6.11° C | 31% | 1019.9 hPa | 0 mm | - | - | - |
| 1777697622 | 6.11° C | 31% | 1020 hPa | 0 mm | - | - | - |
| 1777697011 | 6.67° C | 30% | 1020 hPa | 0 mm | - | - | - |
| 1777696424 | 6.67° C | 30% | 1019.9 hPa | 0 mm | - | - | - |
| 1777695805 | 6.67° C | 30% | 1019.8 hPa | 0 mm | - | - | - |
* Rain since midnight (hover to see other rain measurements)
** Current wind speed in m/s (hover to see current wind gust speed)